createdAt,value
2018-05-02T00:01:55.845Z,3.53
2018-05-02T00:04:23.473Z,3.63
2018-05-02T00:06:50.945Z,3.30
2018-05-02T00:09:18.445Z,4.10
2018-05-02T00:11:45.950Z,4.47
2018-05-02T00:14:13.453Z,3.93
2018-05-02T00:16:40.960Z,3.83
2018-05-02T00:19:08.448Z,4.20
2018-05-02T00:21:35.944Z,4.40
2018-05-02T00:24:03.452Z,4.10
2018-05-02T00:26:30.930Z,4.33
2018-05-02T00:28:58.605Z,4.13
2018-05-02T00:31:26.076Z,4.57
2018-05-02T00:33:53.553Z,5.13
2018-05-02T00:36:21.059Z,5.00
2018-05-02T00:38:48.537Z,4.33
2018-05-02T00:41:16.053Z,4.73
2018-05-02T00:43:43.525Z,4.30
2018-05-02T00:46:11.000Z,4.30
2018-05-02T00:48:50.267Z,5.00
2018-05-02T00:51:17.741Z,3.87
2018-05-02T00:53:45.244Z,4.37
2018-05-02T00:56:12.717Z,4.60
2018-05-02T00:58:40.244Z,3.93
2018-05-02T01:01:07.730Z,4.57
2018-05-02T01:03:35.201Z,4.33
2018-05-02T01:06:02.711Z,5.27
2018-05-02T01:08:30.232Z,4.33
2018-05-02T01:10:57.876Z,4.77
2018-05-02T01:13:25.349Z,4.60
2018-05-02T01:15:52.827Z,3.93
2018-05-02T01:18:20.329Z,5.07
2018-05-02T01:20:47.805Z,4.37
2018-05-02T01:23:15.324Z,4.67
2018-05-02T01:25:42.804Z,4.97
2018-05-02T01:28:10.281Z,4.50
2018-05-02T01:30:37.785Z,5.53
2018-05-02T01:33:05.268Z,4.33
2018-05-02T01:35:32.984Z,4.17
2018-05-02T01:38:00.468Z,4.00
2018-05-02T01:40:27.942Z,5.00
2018-05-02T01:42:55.453Z,4.40
2018-05-02T01:45:22.935Z,4.20
2018-05-02T01:47:50.448Z,4.03
2018-05-02T01:50:17.930Z,4.40
2018-05-02T01:52:45.409Z,4.50
2018-05-02T01:55:12.917Z,4.23
2018-05-02T01:57:40.398Z,3.80
2018-05-02T02:00:08.104Z,4.47
2018-05-02T02:02:35.585Z,4.40
2018-05-02T02:05:03.065Z,4.27
2018-05-02T02:07:30.568Z,4.60
2018-05-02T02:09:58.048Z,3.60
2018-05-02T02:12:25.581Z,4.40
2018-05-02T02:14:53.053Z,4.30
2018-05-02T02:17:20.537Z,4.40
2018-05-02T02:19:48.070Z,3.70
2018-05-02T02:22:15.541Z,3.50
2018-05-02T02:24:43.332Z,3.80
2018-05-02T02:27:10.812Z,3.83
2018-05-02T02:29:38.291Z,4.40
2018-05-02T02:32:05.831Z,4.10
2018-05-02T02:34:33.309Z,4.17
2018-05-02T02:37:01.265Z,3.70
2018-05-02T02:39:28.787Z,5.90
2018-05-02T02:41:56.261Z,4.80
2018-05-02T02:44:23.791Z,4.50
2018-05-02T02:46:51.272Z,4.77
2018-05-02T02:49:18.926Z,4.50
2018-05-02T02:51:46.404Z,4.33
2018-05-02T02:54:13.896Z,4.50
2018-05-02T02:56:41.413Z,4.10
2018-05-02T02:59:08.889Z,4.63
2018-05-02T03:01:36.777Z,4.73
2018-05-02T03:04:04.253Z,4.70
2018-05-02T03:06:31.740Z,5.10
2018-05-02T03:08:59.278Z,4.47
2018-05-02T03:11:26.764Z,5.60
2018-05-02T03:13:54.729Z,4.10
2018-05-02T03:16:22.216Z,5.30
2018-05-02T03:18:49.709Z,4.00
2018-05-02T03:21:17.220Z,3.13
2018-05-02T03:23:44.713Z,3.70
2018-05-02T03:26:12.400Z,4.90
2018-05-02T03:28:39.873Z,4.23
2018-05-02T03:31:07.348Z,3.93
2018-05-02T03:33:34.865Z,4.80
2018-05-02T03:36:02.355Z,4.40
2018-05-02T03:38:29.887Z,4.50
2018-05-02T03:40:57.369Z,4.53
2018-05-02T03:43:24.851Z,4.47
2018-05-02T03:45:52.349Z,3.93
2018-05-02T03:48:19.829Z,3.70
2018-05-02T03:50:47.362Z,4.40
2018-05-02T03:53:14.852Z,4.37
2018-05-02T03:55:42.348Z,5.60
2018-05-02T03:58:09.849Z,4.90
2018-05-02T04:00:49.370Z,4.30
2018-05-02T04:03:28.760Z,4.83
2018-05-02T04:06:09.245Z,3.80
2018-05-02T04:08:36.784Z,4.50
2018-05-02T04:11:05.236Z,4.37
2018-05-02T04:13:32.747Z,4.47
2018-05-02T04:16:00.259Z,5.40
2018-05-02T04:18:27.965Z,4.37
2018-05-02T04:20:55.447Z,4.97
2018-05-02T04:23:22.933Z,4.10
2018-05-02T04:25:50.449Z,4.97
2018-05-02T04:28:17.926Z,4.90
2018-05-02T04:30:45.474Z,4.00
2018-05-02T04:33:12.949Z,4.50
2018-05-02T04:35:40.421Z,5.10
2018-05-02T04:38:07.921Z,4.20
2018-05-02T04:40:35.398Z,4.60
2018-05-02T04:43:03.177Z,4.70
2018-05-02T04:45:30.656Z,4.90
2018-05-02T04:47:58.136Z,5.00
2018-05-02T04:50:25.645Z,4.50
2018-05-02T04:52:53.125Z,4.80
2018-05-02T04:55:20.898Z,5.00
2018-05-02T04:57:48.333Z,5.53
2018-05-02T05:00:15.813Z,4.60
2018-05-02T05:02:43.323Z,4.40
2018-05-02T05:05:10.833Z,4.33
2018-05-02T05:07:38.356Z,5.00
2018-05-02T05:10:05.833Z,4.93
2018-05-02T05:12:33.316Z,4.73
2018-05-02T05:15:00.814Z,5.10
2018-05-02T05:17:28.285Z,5.23
2018-05-02T05:19:56.171Z,4.70
2018-05-02T05:22:23.669Z,4.77
2018-05-02T05:24:51.153Z,5.40
2018-05-02T05:27:18.649Z,4.77
2018-05-02T05:29:46.125Z,4.20
2018-05-02T05:32:13.636Z,4.37
2018-05-02T05:34:41.129Z,4.53
2018-05-02T05:37:08.605Z,5.40
2018-05-02T05:39:36.105Z,4.80
2018-05-02T05:42:03.607Z,6.33
2018-05-02T05:44:31.361Z,5.53
2018-05-02T05:46:58.849Z,5.90
2018-05-02T05:49:26.324Z,5.20
2018-05-02T05:51:53.836Z,5.80
2018-05-02T05:54:21.430Z,5.93
2018-05-02T05:56:49.012Z,4.93
2018-05-02T05:59:16.498Z,4.87
2018-05-02T06:01:43.977Z,5.30
2018-05-02T06:04:11.473Z,5.70
2018-05-02T06:06:38.946Z,4.90
2018-05-02T06:09:06.619Z,5.57
2018-05-02T06:11:34.102Z,5.30
2018-05-02T06:14:01.590Z,5.90
2018-05-02T06:16:29.093Z,5.17
2018-05-02T06:18:56.575Z,4.47
2018-05-02T06:21:24.217Z,4.80
2018-05-02T06:23:51.706Z,4.27
2018-05-02T06:26:19.427Z,4.47
2018-05-02T06:28:46.925Z,4.50
2018-05-02T06:31:14.398Z,3.93
2018-05-02T06:33:41.908Z,5.27
2018-05-02T06:36:09.405Z,4.70
2018-05-02T06:38:36.881Z,5.63
2018-05-02T06:41:04.381Z,4.00
2018-05-02T06:43:31.916Z,4.73
2018-05-02T06:45:59.529Z,5.00
2018-05-02T06:48:27.036Z,3.50
2018-05-02T06:50:54.597Z,5.20
2018-05-02T06:53:22.097Z,5.00
2018-05-02T06:55:49.585Z,5.53
2018-05-02T06:58:17.288Z,5.00
2018-05-02T07:00:45.014Z,5.10
2018-05-02T07:03:12.432Z,5.40
2018-05-02T07:05:39.932Z,4.80
2018-05-02T07:08:07.408Z,5.37
2018-05-02T07:10:35.041Z,4.40
2018-05-02T07:13:02.529Z,5.33
2018-05-02T07:15:30.001Z,5.17
2018-05-02T07:17:57.501Z,5.00
2018-05-02T07:20:25.021Z,5.17
2018-05-02T07:22:52.696Z,6.07
2018-05-02T07:25:20.189Z,5.90
2018-05-02T07:27:47.673Z,6.67
2018-05-02T07:30:15.197Z,5.90
2018-05-02T07:32:42.772Z,4.80
2018-05-02T07:35:10.352Z,5.50
2018-05-02T07:37:40.109Z,4.53
2018-05-02T07:40:07.597Z,4.93
2018-05-02T07:42:35.129Z,5.17
2018-05-02T07:45:02.621Z,5.23
2018-05-02T07:47:30.377Z,5.13
2018-05-02T07:49:57.861Z,5.40
2018-05-02T07:52:25.336Z,4.90
2018-05-02T07:54:52.842Z,5.23
2018-05-02T07:57:20.333Z,4.90
2018-05-02T07:59:47.909Z,4.60
2018-05-02T08:02:15.409Z,5.73
2018-05-02T08:04:42.917Z,6.97
2018-05-02T08:07:10.425Z,4.60
2018-05-02T08:09:37.921Z,4.70
2018-05-02T08:12:05.434Z,4.70
2018-05-02T08:14:32.921Z,5.07
2018-05-02T08:17:00.455Z,6.17
2018-05-02T08:19:27.981Z,5.20
2018-05-02T08:21:55.466Z,5.70
2018-05-02T08:24:23.231Z,6.03
2018-05-02T08:26:50.747Z,6.20
2018-05-02T08:29:18.224Z,5.80
2018-05-02T08:31:45.733Z,5.33
2018-05-02T08:34:13.258Z,5.00
2018-05-02T08:36:40.781Z,5.97
2018-05-02T08:39:08.265Z,5.97
2018-05-02T08:41:35.785Z,6.37
2018-05-02T08:44:03.292Z,5.53
2018-05-02T08:46:30.777Z,6.17
2018-05-02T08:48:58.538Z,5.00
2018-05-02T08:51:26.041Z,6.00
2018-05-02T08:53:53.533Z,5.30
2018-05-02T08:56:21.041Z,5.13
2018-05-02T08:58:48.558Z,5.50
2018-05-02T09:01:16.213Z,6.03
2018-05-02T09:03:43.716Z,5.40
2018-05-02T09:06:11.233Z,5.60
2018-05-02T09:08:38.733Z,5.43
2018-05-02T09:11:06.209Z,5.37
2018-05-02T09:13:34.169Z,5.50
2018-05-02T09:16:01.677Z,5.40
2018-05-02T09:18:29.157Z,5.10
2018-05-02T09:20:56.660Z,5.30
2018-05-02T09:23:24.162Z,4.30
2018-05-02T09:25:52.038Z,4.30
2018-05-02T09:28:19.522Z,4.67
2018-05-02T09:30:47.010Z,4.87
2018-05-02T09:33:14.509Z,4.20
2018-05-02T09:35:42.086Z,4.50
2018-05-02T09:38:09.677Z,3.60
2018-05-02T09:40:37.163Z,4.10
2018-05-02T09:43:04.645Z,5.17
2018-05-02T09:45:32.149Z,4.73
2018-05-02T09:47:59.633Z,4.67
2018-05-02T09:50:27.544Z,4.40
2018-05-02T09:52:55.024Z,4.40
2018-05-02T09:55:22.523Z,4.80
2018-05-02T09:57:50.033Z,4.50
2018-05-02T10:00:17.533Z,3.63
2018-05-02T10:02:45.497Z,3.97
2018-05-02T10:05:12.984Z,4.93
2018-05-02T10:07:40.476Z,4.33
2018-05-02T10:10:07.980Z,3.93
2018-05-02T10:12:35.467Z,4.07
2018-05-02T10:15:03.189Z,3.90
2018-05-02T10:17:30.669Z,4.13
2018-05-02T10:19:58.149Z,4.73
2018-05-02T10:22:25.669Z,4.57
2018-05-02T10:24:53.178Z,3.40
2018-05-02T10:27:20.700Z,3.40
2018-05-02T10:29:48.185Z,3.87
2018-05-02T10:32:15.669Z,4.70
2018-05-02T10:34:43.176Z,4.30
2018-05-02T10:37:10.668Z,3.07
2018-05-02T10:39:38.473Z,3.03
2018-05-02T10:42:05.961Z,4.70
2018-05-02T10:44:33.457Z,4.70
2018-05-02T10:47:00.961Z,4.00
2018-05-02T10:49:28.456Z,4.77
2018-05-02T10:51:56.238Z,4.10
2018-05-02T10:54:23.733Z,4.17
2018-05-02T10:56:51.221Z,4.70
2018-05-02T10:59:18.744Z,4.10
2018-05-02T11:01:46.385Z,3.27
2018-05-02T11:04:14.164Z,3.17
2018-05-02T11:06:41.652Z,3.70
2018-05-02T11:09:09.133Z,3.80
2018-05-02T11:11:36.645Z,4.50
2018-05-02T11:14:04.129Z,4.07
2018-05-02T11:16:31.645Z,4.23
2018-05-02T11:18:59.175Z,3.50
2018-05-02T11:21:26.673Z,3.70
2018-05-02T11:23:54.246Z,2.07
2018-05-02T11:26:21.697Z,2.80
2018-05-02T11:28:49.210Z,2.20
2018-05-02T11:31:16.700Z,2.07
2018-05-02T11:33:44.182Z,2.00
2018-05-02T11:36:11.681Z,2.17
2018-05-02T11:38:39.169Z,2.70
2018-05-02T11:41:06.715Z,2.03
2018-05-02T11:43:34.208Z,2.03
2018-05-02T11:46:01.688Z,2.43
2018-05-02T11:48:29.213Z,1.90
2018-05-02T11:50:56.685Z,2.87
2018-05-02T11:53:24.497Z,2.57
2018-05-02T11:55:51.973Z,2.20
2018-05-02T11:58:19.456Z,2.33
2018-05-02T12:00:46.960Z,2.10
2018-05-02T12:03:14.794Z,2.13
2018-05-02T12:05:42.157Z,2.17
2018-05-02T12:08:09.641Z,2.37
2018-05-02T12:10:37.122Z,2.40
2018-05-02T12:13:04.643Z,2.17
2018-05-02T12:15:32.912Z,2.23
2018-05-02T12:18:00.530Z,1.90
2018-05-02T12:20:28.015Z,2.60
2018-05-02T12:22:55.494Z,2.40
2018-05-02T12:25:23.014Z,1.70
2018-05-02T12:27:50.580Z,1.33
2018-05-02T12:30:18.214Z,1.80
2018-05-02T12:32:45.700Z,2.00
2018-05-02T12:35:13.177Z,2.10
2018-05-02T12:37:40.682Z,1.93
2018-05-02T12:40:08.195Z,1.43
2018-05-02T12:42:35.712Z,2.90
2018-05-02T12:45:03.197Z,1.60
2018-05-02T12:47:30.704Z,1.80
2018-05-02T12:49:58.205Z,2.17
2018-05-02T12:52:25.684Z,1.80
2018-05-02T12:54:53.397Z,2.10
2018-05-02T12:57:20.873Z,2.10
2018-05-02T12:59:48.373Z,1.90
2018-05-02T13:02:16.125Z,1.90
2018-05-02T13:04:43.605Z,1.90
2018-05-02T13:07:11.252Z,1.40
2018-05-02T13:09:38.737Z,1.70
2018-05-02T13:12:06.220Z,2.00
2018-05-02T13:14:33.733Z,1.30
2018-05-02T13:17:01.212Z,1.13
2018-05-02T13:19:28.720Z,0.93
2018-05-02T13:21:56.213Z,1.10
2018-05-02T13:24:23.697Z,1.70
2018-05-02T13:26:51.192Z,1.97
2018-05-02T13:29:18.669Z,1.30
2018-05-02T13:31:46.185Z,1.30
2018-05-02T13:34:13.665Z,1.33
2018-05-02T13:36:41.170Z,1.23
2018-05-02T13:39:08.690Z,1.80
2018-05-02T13:41:36.204Z,1.07
2018-05-02T13:44:03.740Z,1.20
2018-05-02T13:46:31.221Z,1.77
2018-05-02T13:48:58.700Z,1.50
2018-05-02T13:51:26.206Z,1.50
2018-05-02T13:53:53.711Z,1.40
2018-05-02T13:56:21.373Z,1.20
2018-05-02T13:58:48.873Z,1.33
2018-05-02T14:01:16.385Z,1.70
2018-05-02T14:03:43.897Z,1.43
2018-05-02T14:06:11.385Z,1.53
2018-05-02T14:08:38.905Z,1.67
2018-05-02T14:11:06.380Z,1.77
2018-05-02T14:13:33.857Z,1.60
2018-05-02T14:16:01.386Z,1.43
2018-05-02T14:18:28.881Z,1.80
2018-05-02T14:20:56.785Z,1.90
2018-05-02T14:23:24.260Z,1.70
2018-05-02T14:25:51.738Z,1.80
2018-05-02T14:28:19.237Z,1.83
2018-05-02T14:30:46.708Z,1.47
2018-05-02T14:33:14.335Z,1.10
2018-05-02T14:35:41.827Z,1.33
2018-05-02T14:38:09.317Z,1.20
2018-05-02T14:40:36.828Z,1.30
2018-05-02T14:43:04.305Z,1.20
2018-05-02T14:45:31.834Z,1.30
2018-05-02T14:47:59.311Z,1.07
2018-05-02T14:50:26.799Z,1.43
2018-05-02T14:52:54.316Z,1.30
2018-05-02T14:55:21.847Z,0.90
2018-05-02T14:57:49.561Z,0.70
2018-05-02T15:00:17.712Z,1.20
2018-05-02T15:02:45.196Z,1.10
2018-05-02T15:05:12.698Z,1.30
2018-05-02T15:07:40.187Z,1.37
2018-05-02T15:10:07.924Z,1.40
2018-05-02T15:12:35.412Z,1.30
2018-05-02T15:15:02.893Z,1.60
2018-05-02T15:17:30.401Z,0.90
2018-05-02T15:19:57.910Z,1.70
2018-05-02T15:22:25.432Z,1.43
2018-05-02T15:24:52.917Z,1.07
2018-05-02T15:27:20.417Z,0.93
2018-05-02T15:29:47.921Z,1.23
2018-05-02T15:32:15.409Z,1.03
2018-05-02T15:34:42.936Z,1.40
2018-05-02T15:37:10.413Z,1.40
2018-05-02T15:39:37.913Z,1.10
2018-05-02T15:42:05.453Z,1.33
2018-05-02T15:44:32.924Z,1.40
2018-05-02T15:47:00.450Z,1.20
2018-05-02T15:49:27.925Z,1.17
2018-05-02T15:51:55.417Z,1.03
2018-05-02T15:54:22.939Z,1.20
2018-05-02T15:56:50.420Z,1.57
2018-05-02T15:59:18.253Z,1.37
2018-05-02T16:01:45.758Z,1.80
2018-05-02T16:04:13.233Z,1.63
2018-05-02T16:06:40.732Z,1.53
2018-05-02T16:09:08.229Z,1.70
2018-05-02T16:11:36.093Z,1.33
2018-05-02T16:14:03.577Z,1.20
2018-05-02T16:16:31.097Z,1.40
2018-05-02T16:18:58.656Z,1.27
2018-05-02T16:21:26.081Z,1.10
2018-05-02T16:23:53.759Z,1.67
2018-05-02T16:26:21.248Z,1.10
2018-05-02T16:28:48.757Z,1.20
2018-05-02T16:31:16.263Z,1.40
2018-05-02T16:33:43.769Z,1.53
2018-05-02T16:36:11.301Z,1.03
2018-05-02T16:38:38.780Z,1.20
2018-05-02T16:41:06.261Z,1.10
2018-05-02T16:43:33.824Z,1.60
2018-05-02T16:46:01.302Z,1.53
2018-05-02T16:48:29.049Z,1.50
2018-05-02T16:50:56.532Z,1.30
2018-05-02T16:53:24.011Z,1.33
2018-05-02T16:55:51.517Z,1.33
2018-05-02T16:58:18.992Z,1.50
2018-05-02T17:00:46.722Z,1.33
2018-05-02T17:03:14.209Z,1.73
2018-05-02T17:05:41.766Z,1.00
2018-05-02T17:08:09.268Z,1.20
2018-05-02T17:10:36.792Z,1.43
2018-05-02T17:13:04.329Z,1.27
2018-05-02T17:15:31.808Z,1.03
2018-05-02T17:17:59.292Z,1.50
2018-05-02T17:20:26.796Z,1.37
2018-05-02T17:22:54.277Z,1.50
2018-05-02T17:25:21.793Z,1.23
2018-05-02T17:27:49.293Z,0.93
2018-05-02T17:30:16.772Z,0.97
2018-05-02T17:32:44.302Z,1.20
2018-05-02T17:35:11.806Z,1.00
2018-05-02T17:37:39.361Z,1.27
2018-05-02T17:40:06.846Z,1.20
2018-05-02T17:42:34.333Z,1.00
2018-05-02T17:45:01.881Z,1.10
2018-05-02T17:47:29.361Z,1.30
2018-05-02T17:49:57.304Z,1.07
2018-05-02T17:52:24.804Z,0.77
2018-05-02T17:54:52.289Z,0.97
2018-05-02T17:57:19.809Z,1.17
2018-05-02T17:59:47.326Z,1.43
2018-05-02T18:02:15.085Z,1.20
2018-05-02T18:04:42.562Z,1.00
2018-05-02T18:07:10.058Z,1.10
2018-05-02T18:09:37.611Z,1.30
2018-05-02T18:12:05.098Z,1.33
2018-05-02T18:14:32.838Z,1.03
2018-05-02T18:17:00.335Z,1.10
2018-05-02T18:19:27.823Z,1.23
2018-05-02T18:21:55.445Z,1.77
2018-05-02T18:24:23.663Z,1.73
2018-05-02T18:26:51.199Z,3.07
2018-05-02T18:29:18.797Z,1.40
2018-05-02T18:31:46.387Z,0.70
2018-05-02T18:34:14.465Z,1.33
2018-05-02T18:36:42.657Z,1.40
2018-05-02T18:39:11.372Z,1.30
2018-05-02T18:41:40.979Z,1.43
2018-05-02T18:44:08.851Z,0.90
2018-05-02T18:46:37.037Z,1.83
2018-05-02T18:49:05.339Z,3.10
2018-05-02T18:51:34.140Z,1.67
2018-05-02T18:54:02.375Z,0.93
2018-05-02T18:56:31.273Z,1.13
2018-05-02T18:58:59.651Z,1.07
2018-05-02T19:01:28.632Z,0.93
2018-05-02T19:03:57.253Z,2.07
2018-05-02T19:06:26.211Z,1.60
2018-05-02T19:08:54.697Z,1.97
2018-05-02T19:11:23.114Z,1.80
2018-05-02T19:13:57.074Z,1.20
2018-05-02T19:16:25.679Z,1.20
2018-05-02T19:18:59.375Z,1.47
2018-05-02T19:21:27.905Z,1.67
2018-05-02T19:23:56.411Z,1.30
2018-05-02T19:26:30.487Z,1.50
2018-05-02T19:28:59.561Z,1.60
2018-05-02T19:31:33.286Z,1.20
2018-05-02T19:34:01.766Z,1.73
2018-05-02T19:36:30.192Z,1.50
2018-05-02T19:38:58.662Z,1.50
2018-05-02T19:41:32.298Z,1.37
2018-05-02T19:44:03.687Z,1.70
2018-05-02T19:46:32.434Z,1.73
2018-05-02T19:49:01.209Z,1.87
2018-05-02T19:51:35.419Z,1.73
2018-05-02T19:54:05.070Z,1.97
2018-05-02T19:56:33.665Z,1.70
2018-05-02T19:59:02.102Z,2.17
2018-05-02T20:01:35.962Z,1.97
2018-05-02T20:04:05.135Z,2.13
2018-05-02T20:06:34.815Z,2.03
2018-05-02T20:09:08.755Z,3.07
2018-05-02T20:11:42.951Z,2.17
2018-05-02T20:14:11.350Z,2.90
2018-05-02T20:16:39.640Z,2.40
2018-05-02T20:19:08.099Z,4.17
2018-05-02T20:21:37.203Z,1.80
2018-05-02T20:24:05.533Z,2.00
2018-05-02T20:26:33.802Z,2.03
2018-05-02T20:29:01.822Z,2.03
2018-05-02T20:31:29.999Z,1.90
2018-05-02T20:33:58.228Z,2.10
2018-05-02T20:36:26.421Z,2.57
2018-05-02T20:38:54.347Z,2.60
2018-05-02T20:41:21.884Z,3.50
2018-05-02T20:43:49.405Z,3.70
2018-05-02T20:46:16.934Z,3.50
2018-05-02T20:48:44.608Z,2.97
2018-05-02T20:51:12.094Z,2.70
2018-05-02T20:53:39.590Z,2.23
2018-05-02T20:56:07.140Z,3.00
2018-05-02T20:58:34.629Z,3.50
2018-05-02T21:01:02.378Z,3.30
2018-05-02T21:03:29.865Z,2.30
2018-05-02T21:05:57.347Z,2.60
2018-05-02T21:08:24.896Z,3.30
2018-05-02T21:10:52.397Z,3.40
2018-05-02T21:13:20.229Z,3.40
2018-05-02T21:15:47.706Z,3.00
2018-05-02T21:18:15.185Z,3.40
2018-05-02T21:20:42.693Z,2.60
2018-05-02T21:23:10.181Z,3.33
2018-05-02T21:25:37.977Z,3.03
2018-05-02T21:28:05.457Z,3.40
2018-05-02T21:30:32.952Z,3.90
2018-05-02T21:33:00.457Z,3.47
2018-05-02T21:35:27.941Z,3.00
2018-05-02T21:37:55.632Z,3.37
2018-05-02T21:40:23.108Z,3.23
2018-05-02T21:42:50.583Z,3.23
2018-05-02T21:45:18.085Z,3.97
2018-05-02T21:47:45.609Z,4.00
2018-05-02T21:50:14.034Z,4.00
2018-05-02T21:52:41.519Z,3.57
2018-05-02T21:55:09.160Z,3.30
2018-05-02T21:57:36.649Z,3.30
2018-05-02T22:00:04.125Z,3.90
2018-05-02T22:02:31.624Z,3.17
2018-05-02T22:04:59.160Z,3.90
2018-05-02T22:07:26.905Z,3.87
2018-05-02T22:09:54.401Z,3.67
2018-05-02T22:12:21.882Z,3.40
2018-05-02T22:14:49.432Z,3.70
2018-05-02T22:17:16.933Z,3.10
2018-05-02T22:19:44.477Z,3.80
2018-05-02T22:22:11.949Z,3.60
2018-05-02T22:24:39.433Z,3.27
2018-05-02T22:27:06.937Z,3.00
2018-05-02T22:29:34.417Z,3.60
2018-05-02T22:32:02.065Z,4.20
2018-05-02T22:34:29.541Z,3.97
2018-05-02T22:36:57.033Z,3.50
2018-05-02T22:39:24.532Z,4.70
2018-05-02T22:41:52.012Z,3.80
2018-05-02T22:44:19.672Z,3.33
2018-05-02T22:46:47.160Z,3.53
2018-05-02T22:49:14.639Z,3.43
2018-05-02T22:51:42.152Z,3.50
2018-05-02T22:54:09.625Z,4.37
2018-05-02T22:56:37.142Z,3.23
2018-05-02T22:59:04.633Z,3.70
2018-05-02T23:01:32.109Z,4.63
2018-05-02T23:03:59.641Z,3.60
2018-05-02T23:06:27.112Z,3.87
2018-05-02T23:08:54.637Z,3.70
2018-05-02T23:11:22.113Z,4.13
2018-05-02T23:13:49.601Z,4.40
2018-05-02T23:16:17.125Z,4.20
2018-05-02T23:18:44.597Z,4.47
2018-05-02T23:21:12.115Z,4.60
2018-05-02T23:23:39.605Z,4.80
2018-05-02T23:26:07.081Z,4.40
2018-05-02T23:28:34.580Z,4.93
2018-05-02T23:31:02.052Z,4.40
2018-05-02T23:33:29.888Z,3.93
2018-05-02T23:35:57.369Z,3.80
2018-05-02T23:38:24.841Z,4.30
2018-05-02T23:40:52.340Z,4.07
2018-05-02T23:43:19.828Z,4.43
2018-05-02T23:45:47.556Z,4.60
2018-05-02T23:48:15.033Z,4.60
2018-05-02T23:50:42.521Z,5.10
2018-05-02T23:53:10.017Z,4.13
2018-05-02T23:55:37.497Z,4.37
2018-05-02T23:58:05.221Z,3.93
